sensor_id;sensor_type;location;lat;lon;timestamp;P1;durP1;ratioP1;P2;durP2;ratioP2
40471;SDS011;26174;42.908;23.800;2022-12-16T00:01:24;160.20;;;71.05;;
40471;SDS011;26174;42.908;23.800;2022-12-16T00:04:55;188.40;;;81.53;;
40471;SDS011;26174;42.908;23.800;2022-12-16T00:15:04;187.55;;;75.65;;
40471;SDS011;26174;42.908;23.800;2022-12-16T00:18:29;189.50;;;80.68;;
40471;SDS011;26174;42.908;23.800;2022-12-16T00:22:07;175.88;;;75.45;;
40471;SDS011;26174;42.908;23.800;2022-12-16T00:28:28;176.80;;;71.70;;
40471;SDS011;26174;42.908;23.800;2022-12-16T00:32:05;160.45;;;73.60;;
40471;SDS011;26174;42.908;23.800;2022-12-16T00:35:56;148.98;;;64.00;;
40471;SDS011;26174;42.908;23.800;2022-12-16T00:39:03;151.05;;;65.93;;
40471;SDS011;26174;42.908;23.800;2022-12-16T00:46:00;128.50;;;57.47;;
40471;SDS011;26174;42.908;23.800;2022-12-16T00:52:16;129.13;;;54.58;;
40471;SDS011;26174;42.908;23.800;2022-12-16T00:55:54;111.80;;;49.00;;
40471;SDS011;26174;42.908;23.800;2022-12-16T00:59:23;121.20;;;52.28;;
40471;SDS011;26174;42.908;23.800;2022-12-16T01:02:53;146.02;;;62.05;;
40471;SDS011;26174;42.908;23.800;2022-12-16T01:09:36;157.05;;;65.43;;
40471;SDS011;26174;42.908;23.800;2022-12-16T01:13:03;145.23;;;63.65;;
40471;SDS011;26174;42.908;23.800;2022-12-16T01:15:47;161.68;;;70.05;;
40471;SDS011;26174;42.908;23.800;2022-12-16T01:18:52;123.97;;;53.47;;
40471;SDS011;26174;42.908;23.800;2022-12-16T01:22:10;131.95;;;55.58;;
40471;SDS011;26174;42.908;23.800;2022-12-16T01:25:37;121.68;;;51.72;;
40471;SDS011;26174;42.908;23.800;2022-12-16T01:29:08;125.57;;;53.63;;
40471;SDS011;26174;42.908;23.800;2022-12-16T01:32:20;128.57;;;54.55;;
40471;SDS011;26174;42.908;23.800;2022-12-16T01:35:27;121.95;;;52.50;;
40471;SDS011;26174;42.908;23.800;2022-12-16T01:39:09;123.70;;;51.72;;
40471;SDS011;26174;42.908;23.800;2022-12-16T01:43:09;113.78;;;50.75;;
40471;SDS011;26174;42.908;23.800;2022-12-16T01:46:25;105.97;;;46.75;;
40471;SDS011;26174;42.908;23.800;2022-12-16T01:49:52;106.88;;;44.03;;
40471;SDS011;26174;42.908;23.800;2022-12-16T01:53:31;110.90;;;47.35;;
40471;SDS011;26174;42.908;23.800;2022-12-16T01:56:44;107.25;;;45.22;;
40471;SDS011;26174;42.908;23.800;2022-12-16T02:03:17;102.70;;;44.03;;
40471;SDS011;26174;42.908;23.800;2022-12-16T02:07:00;109.77;;;41.87;;
40471;SDS011;26174;42.908;23.800;2022-12-16T02:13:57;82.60;;;37.10;;
40471;SDS011;26174;42.908;23.800;2022-12-16T02:30:59;72.80;;;27.63;;
40471;SDS011;26174;42.908;23.800;2022-12-16T02:34:34;66.78;;;29.75;;
40471;SDS011;26174;42.908;23.800;2022-12-16T02:48:02;79.50;;;35.55;;
40471;SDS011;26174;42.908;23.800;2022-12-16T02:51:05;83.10;;;35.85;;
40471;SDS011;26174;42.908;23.800;2022-12-16T02:54:35;72.47;;;34.75;;
40471;SDS011;26174;42.908;23.800;2022-12-16T02:59:22;72.35;;;32.58;;
40471;SDS011;26174;42.908;23.800;2022-12-16T03:01:50;72.88;;;33.17;;
40471;SDS011;26174;42.908;23.800;2022-12-16T03:05:49;69.97;;;33.03;;
40471;SDS011;26174;42.908;23.800;2022-12-16T03:09:25;78.55;;;34.50;;
40471;SDS011;26174;42.908;23.800;2022-12-16T03:12:29;75.03;;;35.17;;
40471;SDS011;26174;42.908;23.800;2022-12-16T03:16:02;81.70;;;35.22;;
40471;SDS011;26174;42.908;23.800;2022-12-16T03:19:29;90.20;;;39.38;;
40471;SDS011;26174;42.908;23.800;2022-12-16T03:22:33;81.88;;;36.92;;
40471;SDS011;26174;42.908;23.800;2022-12-16T03:29:40;84.53;;;38.90;;
40471;SDS011;26174;42.908;23.800;2022-12-16T03:33:02;68.25;;;31.05;;
40471;SDS011;26174;42.908;23.800;2022-12-16T03:36:14;77.90;;;35.25;;
40471;SDS011;26174;42.908;23.800;2022-12-16T03:39:32;72.03;;;33.33;;
40471;SDS011;26174;42.908;23.800;2022-12-16T03:46:36;70.57;;;32.53;;
40471;SDS011;26174;42.908;23.800;2022-12-16T03:49:51;70.72;;;33.50;;
40471;SDS011;26174;42.908;23.800;2022-12-16T03:53:10;62.60;;;27.45;;
40471;SDS011;26174;42.908;23.800;2022-12-16T03:56:46;47.78;;;21.15;;
40471;SDS011;26174;42.908;23.800;2022-12-16T04:00:11;53.22;;;26.42;;
40471;SDS011;26174;42.908;23.800;2022-12-16T04:06:24;98.07;;;43.60;;
40471;SDS011;26174;42.908;23.800;2022-12-16T04:10:07;95.07;;;41.20;;
40471;SDS011;26174;42.908;23.800;2022-12-16T04:13:39;86.20;;;40.25;;
40471;SDS011;26174;42.908;23.800;2022-12-16T04:16:49;81.88;;;37.42;;
40471;SDS011;26174;42.908;23.800;2022-12-16T04:19:35;82.88;;;40.05;;
40471;SDS011;26174;42.908;23.800;2022-12-16T04:22:38;78.68;;;37.97;;
40471;SDS011;26174;42.908;23.800;2022-12-16T04:26:04;78.70;;;37.20;;
40471;SDS011;26174;42.908;23.800;2022-12-16T04:29:18;73.70;;;34.67;;
40471;SDS011;26174;42.908;23.800;2022-12-16T04:32:08;89.57;;;37.87;;
40471;SDS011;26174;42.908;23.800;2022-12-16T04:35:32;112.20;;;43.10;;
40471;SDS011;26174;42.908;23.800;2022-12-16T04:39:04;88.55;;;38.30;;
40471;SDS011;26174;42.908;23.800;2022-12-16T04:42:42;80.18;;;36.25;;
40471;SDS011;26174;42.908;23.800;2022-12-16T04:45:48;80.25;;;36.67;;
40471;SDS011;26174;42.908;23.800;2022-12-16T04:48:56;90.47;;;40.38;;
40471;SDS011;26174;42.908;23.800;2022-12-16T04:51:57;92.97;;;42.28;;
40471;SDS011;26174;42.908;23.800;2022-12-16T04:55:10;73.78;;;34.47;;
40471;SDS011;26174;42.908;23.800;2022-12-16T04:58:09;57.30;;;26.02;;
40471;SDS011;26174;42.908;23.800;2022-12-16T05:00:55;47.38;;;24.02;;
40471;SDS011;26174;42.908;23.800;2022-12-16T05:04:03;51.03;;;25.98;;
40471;SDS011;26174;42.908;23.800;2022-12-16T05:07:36;54.40;;;26.42;;
40471;SDS011;26174;42.908;23.800;2022-12-16T05:11:01;57.75;;;28.67;;
40471;SDS011;26174;42.908;23.800;2022-12-16T05:14:06;61.03;;;30.00;;
40471;SDS011;26174;42.908;23.800;2022-12-16T05:20:35;90.97;;;38.35;;
40471;SDS011;26174;42.908;23.800;2022-12-16T05:24:15;82.43;;;37.53;;
40471;SDS011;26174;42.908;23.800;2022-12-16T05:27:43;71.45;;;35.20;;
40471;SDS011;26174;42.908;23.800;2022-12-16T05:31:18;180.52;;;71.43;;
40471;SDS011;26174;42.908;23.800;2022-12-16T05:34:30;90.85;;;40.25;;
40471;SDS011;26174;42.908;23.800;2022-12-16T05:37:39;76.20;;;34.65;;
40471;SDS011;26174;42.908;23.800;2022-12-16T05:41:04;69.63;;;33.30;;
40471;SDS011;26174;42.908;23.800;2022-12-16T05:48:21;59.80;;;28.45;;
40471;SDS011;26174;42.908;23.800;2022-12-16T05:51:45;70.93;;;32.63;;
40471;SDS011;26174;42.908;23.800;2022-12-16T05:54:51;72.82;;;32.88;;
40471;SDS011;26174;42.908;23.800;2022-12-16T05:58:24;87.72;;;41.60;;
40471;SDS011;26174;42.908;23.800;2022-12-16T06:01:38;86.78;;;38.50;;
40471;SDS011;26174;42.908;23.800;2022-12-16T06:05:09;109.15;;;47.38;;
40471;SDS011;26174;42.908;23.800;2022-12-16T06:08:17;98.15;;;45.03;;
40471;SDS011;26174;42.908;23.800;2022-12-16T06:11:49;117.13;;;51.58;;
40471;SDS011;26174;42.908;23.800;2022-12-16T06:15:04;114.57;;;53.25;;
40471;SDS011;26174;42.908;23.800;2022-12-16T06:18:07;108.50;;;50.60;;
40471;SDS011;26174;42.908;23.800;2022-12-16T06:21:44;110.00;;;52.92;;
40471;SDS011;26174;42.908;23.800;2022-12-16T06:24:32;84.35;;;39.67;;
40471;SDS011;26174;42.908;23.800;2022-12-16T06:28:19;86.85;;;42.78;;
40471;SDS011;26174;42.908;23.800;2022-12-16T06:31:47;86.53;;;39.28;;
40471;SDS011;26174;42.908;23.800;2022-12-16T06:34:57;73.03;;;36.20;;
40471;SDS011;26174;42.908;23.800;2022-12-16T06:38:22;78.47;;;37.33;;
40471;SDS011;26174;42.908;23.800;2022-12-16T06:41:27;89.38;;;41.13;;
40471;SDS011;26174;42.908;23.800;2022-12-16T06:44:42;118.82;;;49.72;;
40471;SDS011;26174;42.908;23.800;2022-12-16T06:48:10;355.55;;;161.07;;
40471;SDS011;26174;42.908;23.800;2022-12-16T06:51:20;262.40;;;108.18;;
40471;SDS011;26174;42.908;23.800;2022-12-16T06:54:56;176.35;;;73.38;;
40471;SDS011;26174;42.908;23.800;2022-12-16T06:58:24;257.50;;;128.60;;
40471;SDS011;26174;42.908;23.800;2022-12-16T07:01:44;168.90;;;79.07;;
40471;SDS011;26174;42.908;23.800;2022-12-16T07:05:03;127.68;;;57.70;;
40471;SDS011;26174;42.908;23.800;2022-12-16T07:08:15;149.43;;;66.50;;
40471;SDS011;26174;42.908;23.800;2022-12-16T07:11:55;169.05;;;68.47;;
40471;SDS011;26174;42.908;23.800;2022-12-16T07:15:26;137.18;;;63.80;;
40471;SDS011;26174;42.908;23.800;2022-12-16T07:18:54;149.70;;;64.18;;
40471;SDS011;26174;42.908;23.800;2022-12-16T07:22:19;149.75;;;71.45;;
40471;SDS011;26174;42.908;23.800;2022-12-16T07:29:06;148.55;;;70.35;;
40471;SDS011;26174;42.908;23.800;2022-12-16T07:32:28;136.55;;;62.08;;
40471;SDS011;26174;42.908;23.800;2022-12-16T07:35:36;116.88;;;54.83;;
40471;SDS011;26174;42.908;23.800;2022-12-16T07:38:54;103.72;;;47.92;;
40471;SDS011;26174;42.908;23.800;2022-12-16T07:42:20;132.27;;;62.38;;
40471;SDS011;26174;42.908;23.800;2022-12-16T07:45:53;76.38;;;36.80;;
40471;SDS011;26174;42.908;23.800;2022-12-16T07:49:22;61.03;;;28.70;;
40471;SDS011;26174;42.908;23.800;2022-12-16T07:52:10;54.42;;;28.10;;
40471;SDS011;26174;42.908;23.800;2022-12-16T07:55:16;58.53;;;31.77;;
40471;SDS011;26174;42.908;23.800;2022-12-16T07:58:23;89.05;;;45.10;;
40471;SDS011;26174;42.908;23.800;2022-12-16T08:01:52;91.30;;;43.78;;
40471;SDS011;26174;42.908;23.800;2022-12-16T08:05:06;80.95;;;38.55;;
40471;SDS011;26174;42.908;23.800;2022-12-16T08:08:16;70.53;;;37.15;;
40471;SDS011;26174;42.908;23.800;2022-12-16T08:11:29;67.60;;;34.85;;
40471;SDS011;26174;42.908;23.800;2022-12-16T08:14:36;76.70;;;41.35;;
40471;SDS011;26174;42.908;23.800;2022-12-16T08:17:49;91.43;;;50.97;;
40471;SDS011;26174;42.908;23.800;2022-12-16T08:21:17;88.07;;;49.75;;
40471;SDS011;26174;42.908;23.800;2022-12-16T08:24:39;101.07;;;53.78;;
40471;SDS011;26174;42.908;23.800;2022-12-16T08:27:53;105.07;;;56.60;;
40471;SDS011;26174;42.908;23.800;2022-12-16T08:31:05;89.70;;;51.20;;
40471;SDS011;26174;42.908;23.800;2022-12-16T08:34:05;70.32;;;40.22;;
40471;SDS011;26174;42.908;23.800;2022-12-16T08:37:27;74.68;;;41.28;;
40471;SDS011;26174;42.908;23.800;2022-12-16T08:40:32;57.78;;;34.15;;
40471;SDS011;26174;42.908;23.800;2022-12-16T08:43:39;73.95;;;41.95;;
40471;SDS011;26174;42.908;23.800;2022-12-16T08:50:03;43.08;;;24.88;;
40471;SDS011;26174;42.908;23.800;2022-12-16T08:53:14;37.58;;;22.42;;
40471;SDS011;26174;42.908;23.800;2022-12-16T08:56:36;40.50;;;22.35;;
40471;SDS011;26174;42.908;23.800;2022-12-16T09:00:07;36.90;;;19.92;;
40471;SDS011;26174;42.908;23.800;2022-12-16T09:03:30;41.50;;;20.77;;
40471;SDS011;26174;42.908;23.800;2022-12-16T09:06:55;39.72;;;25.25;;
40471;SDS011;26174;42.908;23.800;2022-12-16T09:09:55;47.78;;;29.50;;
40471;SDS011;26174;42.908;23.800;2022-12-16T09:13:29;44.30;;;25.77;;
40471;SDS011;26174;42.908;23.800;2022-12-16T09:16:58;42.72;;;27.85;;
40471;SDS011;26174;42.908;23.800;2022-12-16T09:20:20;59.10;;;33.10;;
40471;SDS011;26174;42.908;23.800;2022-12-16T09:23:58;44.60;;;29.00;;
40471;SDS011;26174;42.908;23.800;2022-12-16T09:27:05;45.05;;;26.35;;
40471;SDS011;26174;42.908;23.800;2022-12-16T09:30:33;42.30;;;24.95;;
40471;SDS011;26174;42.908;23.800;2022-12-16T09:37:07;33.95;;;20.67;;
40471;SDS011;26174;42.908;23.800;2022-12-16T09:40:38;28.80;;;16.33;;
40471;SDS011;26174;42.908;23.800;2022-12-16T09:44:05;31.77;;;18.13;;
40471;SDS011;26174;42.908;23.800;2022-12-16T09:50:28;21.50;;;14.30;;
40471;SDS011;26174;42.908;23.800;2022-12-16T09:54:02;28.42;;;18.73;;
40471;SDS011;26174;42.908;23.800;2022-12-16T09:57:39;50.65;;;28.65;;
40471;SDS011;26174;42.908;23.800;2022-12-16T10:01:08;28.52;;;18.45;;
40471;SDS011;26174;42.908;23.800;2022-12-16T10:04:23;20.38;;;14.02;;
40471;SDS011;26174;42.908;23.800;2022-12-16T10:08:07;16.58;;;10.40;;
40471;SDS011;26174;42.908;23.800;2022-12-16T10:15:18;20.85;;;13.20;;
40471;SDS011;26174;42.908;23.800;2022-12-16T10:25:50;24.02;;;14.85;;
40471;SDS011;26174;42.908;23.800;2022-12-16T10:29:26;34.42;;;21.35;;
40471;SDS011;26174;42.908;23.800;2022-12-16T10:32:50;29.27;;;14.98;;
40471;SDS011;26174;42.908;23.800;2022-12-16T10:36:15;18.40;;;10.02;;
40471;SDS011;26174;42.908;23.800;2022-12-16T10:39:46;21.20;;;10.48;;
40471;SDS011;26174;42.908;23.800;2022-12-16T10:46:37;29.83;;;15.25;;
40471;SDS011;26174;42.908;23.800;2022-12-16T10:50:02;50.17;;;28.95;;
40471;SDS011;26174;42.908;23.800;2022-12-16T10:53:35;9.32;;;5.55;;
40471;SDS011;26174;42.908;23.800;2022-12-16T10:57:02;5.45;;;3.03;;
40471;SDS011;26174;42.908;23.800;2022-12-16T11:00:17;14.88;;;3.05;;
40471;SDS011;26174;42.908;23.800;2022-12-16T11:04:25;5.95;;;2.70;;
40471;SDS011;26174;42.908;23.800;2022-12-16T11:11:30;8.60;;;3.60;;
40471;SDS011;26174;42.908;23.800;2022-12-16T11:18:31;8.20;;;3.28;;
40471;SDS011;26174;42.908;23.800;2022-12-16T11:21:19;6.15;;;3.30;;
40471;SDS011;26174;42.908;23.800;2022-12-16T11:24:31;10.38;;;4.57;;
40471;SDS011;26174;42.908;23.800;2022-12-16T11:28:03;6.20;;;3.33;;
40471;SDS011;26174;42.908;23.800;2022-12-16T11:31:30;7.63;;;3.92;;
40471;SDS011;26174;42.908;23.800;2022-12-16T11:34:50;16.17;;;6.70;;
40471;SDS011;26174;42.908;23.800;2022-12-16T11:38:00;9.65;;;5.00;;
40471;SDS011;26174;42.908;23.800;2022-12-16T11:41:25;7.45;;;3.30;;
40471;SDS011;26174;42.908;23.800;2022-12-16T11:44:51;8.48;;;3.90;;
40471;SDS011;26174;42.908;23.800;2022-12-16T11:47:57;13.07;;;6.32;;
40471;SDS011;26174;42.908;23.800;2022-12-16T11:51:20;10.35;;;6.05;;
40471;SDS011;26174;42.908;23.800;2022-12-16T11:54:42;11.75;;;4.68;;
40471;SDS011;26174;42.908;23.800;2022-12-16T12:01:23;6.22;;;2.97;;
40471;SDS011;26174;42.908;23.800;2022-12-16T12:04:50;5.43;;;3.03;;
40471;SDS011;26174;42.908;23.800;2022-12-16T12:15:31;11.15;;;3.67;;
40471;SDS011;26174;42.908;23.800;2022-12-16T12:22:01;7.05;;;3.88;;
40471;SDS011;26174;42.908;23.800;2022-12-16T12:58:32;6.53;;;3.55;;
40471;SDS011;26174;42.908;23.800;2022-12-16T13:02:09;5.90;;;3.78;;
40471;SDS011;26174;42.908;23.800;2022-12-16T13:05:16;9.60;;;5.47;;
40471;SDS011;26174;42.908;23.800;2022-12-16T13:08:46;17.90;;;10.73;;
40471;SDS011;26174;42.908;23.800;2022-12-16T13:15:36;4.43;;;3.20;;
40471;SDS011;26174;42.908;23.800;2022-12-16T13:18:41;6.28;;;3.72;;
40471;SDS011;26174;42.908;23.800;2022-12-16T13:22:25;7.95;;;4.25;;
40471;SDS011;26174;42.908;23.800;2022-12-16T13:32:38;5.80;;;3.80;;
40471;SDS011;26174;42.908;23.800;2022-12-16T13:36:04;5.88;;;3.00;;
40471;SDS011;26174;42.908;23.800;2022-12-16T13:39:28;7.03;;;3.85;;
40471;SDS011;26174;42.908;23.800;2022-12-16T13:42:49;3.90;;;2.63;;
40471;SDS011;26174;42.908;23.800;2022-12-16T13:52:50;7.53;;;4.43;;
40471;SDS011;26174;42.908;23.800;2022-12-16T13:56:13;9.90;;;5.38;;
40471;SDS011;26174;42.908;23.800;2022-12-16T14:03:46;9.77;;;4.97;;
40471;SDS011;26174;42.908;23.800;2022-12-16T14:06:37;11.70;;;5.32;;
40471;SDS011;26174;42.908;23.800;2022-12-16T14:17:00;11.93;;;5.03;;
40471;SDS011;26174;42.908;23.800;2022-12-16T14:24:01;12.20;;;4.82;;
40471;SDS011;26174;42.908;23.800;2022-12-16T14:27:26;15.50;;;5.90;;
40471;SDS011;26174;42.908;23.800;2022-12-16T14:34:01;9.70;;;5.22;;
40471;SDS011;26174;42.908;23.800;2022-12-16T14:37:33;12.65;;;5.93;;
40471;SDS011;26174;42.908;23.800;2022-12-16T14:40:54;10.15;;;5.10;;
40471;SDS011;26174;42.908;23.800;2022-12-16T14:44:24;11.75;;;4.93;;
40471;SDS011;26174;42.908;23.800;2022-12-16T14:50:36;16.63;;;8.77;;
40471;SDS011;26174;42.908;23.800;2022-12-16T14:57:12;17.70;;;9.63;;
40471;SDS011;26174;42.908;23.800;2022-12-16T15:00:21;17.08;;;8.27;;
40471;SDS011;26174;42.908;23.800;2022-12-16T15:03:59;15.15;;;9.13;;
40471;SDS011;26174;42.908;23.800;2022-12-16T15:11:00;15.82;;;7.40;;
40471;SDS011;26174;42.908;23.800;2022-12-16T15:13:53;24.73;;;10.18;;
40471;SDS011;26174;42.908;23.800;2022-12-16T15:17:26;18.75;;;8.23;;
40471;SDS011;26174;42.908;23.800;2022-12-16T15:20:47;23.80;;;9.43;;
40471;SDS011;26174;42.908;23.800;2022-12-16T15:23:42;11.48;;;6.07;;
40471;SDS011;26174;42.908;23.800;2022-12-16T15:33:49;18.65;;;7.60;;
40471;SDS011;26174;42.908;23.800;2022-12-16T15:37:03;9.35;;;3.97;;
40471;SDS011;26174;42.908;23.800;2022-12-16T15:40:28;20.25;;;10.57;;
40471;SDS011;26174;42.908;23.800;2022-12-16T15:43:31;37.00;;;15.57;;
40471;SDS011;26174;42.908;23.800;2022-12-16T15:46:48;22.95;;;9.70;;
40471;SDS011;26174;42.908;23.800;2022-12-16T15:50:19;18.50;;;8.70;;
40471;SDS011;26174;42.908;23.800;2022-12-16T15:53:37;39.35;;;14.40;;
40471;SDS011;26174;42.908;23.800;2022-12-16T15:56:55;20.25;;;11.10;;
40471;SDS011;26174;42.908;23.800;2022-12-16T16:00:36;16.70;;;6.70;;
40471;SDS011;26174;42.908;23.800;2022-12-16T16:03:30;22.48;;;9.75;;
40471;SDS011;26174;42.908;23.800;2022-12-16T16:06:21;28.30;;;7.45;;
40471;SDS011;26174;42.908;23.800;2022-12-16T16:09:48;9.55;;;5.50;;
40471;SDS011;26174;42.908;23.800;2022-12-16T16:13:24;13.25;;;7.53;;
40471;SDS011;26174;42.908;23.800;2022-12-16T16:16:53;19.50;;;7.28;;
40471;SDS011;26174;42.908;23.800;2022-12-16T16:20:12;15.20;;;7.30;;
40471;SDS011;26174;42.908;23.800;2022-12-16T16:23:03;31.23;;;14.02;;
40471;SDS011;26174;42.908;23.800;2022-12-16T16:26:13;28.02;;;11.93;;
40471;SDS011;26174;42.908;23.800;2022-12-16T16:29:23;6.95;;;3.90;;
40471;SDS011;26174;42.908;23.800;2022-12-16T16:32:51;10.38;;;5.00;;
40471;SDS011;26174;42.908;23.800;2022-12-16T16:36:15;14.57;;;7.68;;
40471;SDS011;26174;42.908;23.800;2022-12-16T16:39:19;34.25;;;16.00;;
40471;SDS011;26174;42.908;23.800;2022-12-16T16:42:44;14.93;;;6.93;;
40471;SDS011;26174;42.908;23.800;2022-12-16T16:45:53;20.00;;;10.27;;
40471;SDS011;26174;42.908;23.800;2022-12-16T16:48:45;29.73;;;14.25;;
40471;SDS011;26174;42.908;23.800;2022-12-16T16:51:40;17.40;;;8.32;;
40471;SDS011;26174;42.908;23.800;2022-12-16T16:55:13;15.40;;;7.63;;
40471;SDS011;26174;42.908;23.800;2022-12-16T16:58:37;115.93;;;48.80;;
40471;SDS011;26174;42.908;23.800;2022-12-16T17:01:40;96.80;;;42.65;;
40471;SDS011;26174;42.908;23.800;2022-12-16T17:04:26;13.40;;;7.55;;
40471;SDS011;26174;42.908;23.800;2022-12-16T17:07:32;22.70;;;9.80;;
40471;SDS011;26174;42.908;23.800;2022-12-16T17:10:59;12.15;;;5.55;;
40471;SDS011;26174;42.908;23.800;2022-12-16T17:14:02;19.63;;;8.98;;
40471;SDS011;26174;42.908;23.800;2022-12-16T17:16:56;46.38;;;22.92;;
40471;SDS011;26174;42.908;23.800;2022-12-16T17:19:49;23.15;;;12.20;;
40471;SDS011;26174;42.908;23.800;2022-12-16T17:22:35;26.67;;;12.65;;
40471;SDS011;26174;42.908;23.800;2022-12-16T17:25:20;33.72;;;16.73;;
40471;SDS011;26174;42.908;23.800;2022-12-16T17:28:25;23.67;;;10.00;;
40471;SDS011;26174;42.908;23.800;2022-12-16T17:31:35;103.22;;;39.70;;
40471;SDS011;26174;42.908;23.800;2022-12-16T17:34:43;50.72;;;23.83;;
40471;SDS011;26174;42.908;23.800;2022-12-16T17:37:50;62.35;;;27.23;;
40471;SDS011;26174;42.908;23.800;2022-12-16T17:40:42;186.50;;;71.75;;
40471;SDS011;26174;42.908;23.800;2022-12-16T17:44:07;81.63;;;33.55;;
40471;SDS011;26174;42.908;23.800;2022-12-16T17:47:11;79.38;;;34.90;;
40471;SDS011;26174;42.908;23.800;2022-12-16T17:50:00;51.05;;;24.48;;
40471;SDS011;26174;42.908;23.800;2022-12-16T17:52:47;18.58;;;9.63;;
40471;SDS011;26174;42.908;23.800;2022-12-16T17:55:36;141.30;;;67.70;;
40471;SDS011;26174;42.908;23.800;2022-12-16T17:58:38;22.48;;;8.40;;
40471;SDS011;26174;42.908;23.800;2022-12-16T18:01:27;29.38;;;13.20;;
40471;SDS011;26174;42.908;23.800;2022-12-16T18:04:36;18.17;;;7.95;;
40471;SDS011;26174;42.908;23.800;2022-12-16T18:14:21;74.65;;;33.65;;
40471;SDS011;26174;42.908;23.800;2022-12-16T18:20:53;22.77;;;11.23;;
40471;SDS011;26174;42.908;23.800;2022-12-16T18:23:58;9.60;;;5.70;;
40471;SDS011;26174;42.908;23.800;2022-12-16T18:27:03;14.68;;;6.93;;
40471;SDS011;26174;42.908;23.800;2022-12-16T18:29:51;15.70;;;6.80;;
40471;SDS011;26174;42.908;23.800;2022-12-16T18:32:36;9.13;;;4.68;;
40471;SDS011;26174;42.908;23.800;2022-12-16T18:35:55;8.25;;;4.22;;
40471;SDS011;26174;42.908;23.800;2022-12-16T18:39:35;10.60;;;5.38;;
40471;SDS011;26174;42.908;23.800;2022-12-16T18:43:00;16.50;;;9.95;;
40471;SDS011;26174;42.908;23.800;2022-12-16T18:45:53;22.38;;;12.70;;
40471;SDS011;26174;42.908;23.800;2022-12-16T18:48:40;16.25;;;7.93;;
40471;SDS011;26174;42.908;23.800;2022-12-16T18:51:36;17.33;;;7.57;;
40471;SDS011;26174;42.908;23.800;2022-12-16T18:55:03;10.80;;;5.88;;
40471;SDS011;26174;42.908;23.800;2022-12-16T18:58:51;13.85;;;7.20;;
40471;SDS011;26174;42.908;23.800;2022-12-16T19:02:11;6.78;;;4.10;;
40471;SDS011;26174;42.908;23.800;2022-12-16T19:05:19;22.83;;;6.03;;
40471;SDS011;26174;42.908;23.800;2022-12-16T19:08:46;16.40;;;9.25;;
40471;SDS011;26174;42.908;23.800;2022-12-16T19:12:13;22.52;;;10.27;;
40471;SDS011;26174;42.908;23.800;2022-12-16T19:14:57;11.70;;;6.03;;
40471;SDS011;26174;42.908;23.800;2022-12-16T19:18:04;11.57;;;5.32;;
40471;SDS011;26174;42.908;23.800;2022-12-16T19:21:10;10.52;;;5.72;;
40471;SDS011;26174;42.908;23.800;2022-12-16T19:23:59;8.95;;;3.55;;
40471;SDS011;26174;42.908;23.800;2022-12-16T19:27:23;7.75;;;3.88;;
40471;SDS011;26174;42.908;23.800;2022-12-16T19:30:54;11.27;;;5.28;;
40471;SDS011;26174;42.908;23.800;2022-12-16T19:34:21;7.15;;;4.55;;
40471;SDS011;26174;42.908;23.800;2022-12-16T19:38:01;9.95;;;4.35;;
40471;SDS011;26174;42.908;23.800;2022-12-16T19:41:33;8.85;;;4.82;;
40471;SDS011;26174;42.908;23.800;2022-12-16T19:45:12;9.55;;;5.05;;
40471;SDS011;26174;42.908;23.800;2022-12-16T19:48:20;7.25;;;3.85;;
40471;SDS011;26174;42.908;23.800;2022-12-16T19:51:12;4.88;;;3.13;;
40471;SDS011;26174;42.908;23.800;2022-12-16T19:54:23;4.85;;;3.33;;
40471;SDS011;26174;42.908;23.800;2022-12-16T19:57:47;6.22;;;4.05;;
40471;SDS011;26174;42.908;23.800;2022-12-16T20:00:33;7.55;;;3.80;;
40471;SDS011;26174;42.908;23.800;2022-12-16T20:06:26;8.23;;;4.10;;
40471;SDS011;26174;42.908;23.800;2022-12-16T20:09:36;11.63;;;4.95;;
40471;SDS011;26174;42.908;23.800;2022-12-16T20:12:24;10.38;;;5.30;;
40471;SDS011;26174;42.908;23.800;2022-12-16T20:16:15;9.65;;;5.13;;
40471;SDS011;26174;42.908;23.800;2022-12-16T20:22:50;19.38;;;8.43;;
40471;SDS011;26174;42.908;23.800;2022-12-16T20:25:52;14.30;;;7.45;;
40471;SDS011;26174;42.908;23.800;2022-12-16T20:28:48;15.90;;;6.28;;
40471;SDS011;26174;42.908;23.800;2022-12-16T20:31:59;11.02;;;6.22;;
40471;SDS011;26174;42.908;23.800;2022-12-16T20:34:55;22.05;;;6.28;;
40471;SDS011;26174;42.908;23.800;2022-12-16T20:37:44;13.55;;;7.05;;
40471;SDS011;26174;42.908;23.800;2022-12-16T20:40:57;9.23;;;5.63;;
40471;SDS011;26174;42.908;23.800;2022-12-16T20:43:58;17.38;;;8.45;;
40471;SDS011;26174;42.908;23.800;2022-12-16T20:47:14;23.92;;;12.35;;
40471;SDS011;26174;42.908;23.800;2022-12-16T20:50:23;8.35;;;4.20;;
40471;SDS011;26174;42.908;23.800;2022-12-16T20:53:26;11.32;;;5.38;;
40471;SDS011;26174;42.908;23.800;2022-12-16T20:56:37;12.20;;;4.75;;
40471;SDS011;26174;42.908;23.800;2022-12-16T20:59:46;16.40;;;7.00;;
40471;SDS011;26174;42.908;23.800;2022-12-16T21:03:10;20.75;;;7.35;;
40471;SDS011;26174;42.908;23.800;2022-12-16T21:06:10;16.67;;;7.45;;
40471;SDS011;26174;42.908;23.800;2022-12-16T21:09:14;30.85;;;10.93;;
40471;SDS011;26174;42.908;23.800;2022-12-16T21:12:24;28.88;;;13.52;;
40471;SDS011;26174;42.908;23.800;2022-12-16T21:18:26;41.75;;;15.80;;
40471;SDS011;26174;42.908;23.800;2022-12-16T21:21:32;20.27;;;7.28;;
40471;SDS011;26174;42.908;23.800;2022-12-16T21:24:34;13.40;;;5.45;;
40471;SDS011;26174;42.908;23.800;2022-12-16T21:27:58;14.02;;;6.78;;
40471;SDS011;26174;42.908;23.800;2022-12-16T21:31:13;8.82;;;5.10;;
40471;SDS011;26174;42.908;23.800;2022-12-16T21:34:00;15.52;;;6.47;;
40471;SDS011;26174;42.908;23.800;2022-12-16T21:36:45;10.05;;;4.80;;
40471;SDS011;26174;42.908;23.800;2022-12-16T21:40:12;12.80;;;5.70;;
40471;SDS011;26174;42.908;23.800;2022-12-16T21:43:50;17.38;;;7.18;;
40471;SDS011;26174;42.908;23.800;2022-12-16T21:46:54;15.32;;;6.88;;
40471;SDS011;26174;42.908;23.800;2022-12-16T21:50:23;19.42;;;10.45;;
40471;SDS011;26174;42.908;23.800;2022-12-16T21:53:28;13.93;;;7.35;;
40471;SDS011;26174;42.908;23.800;2022-12-16T21:57:13;14.57;;;8.13;;
40471;SDS011;26174;42.908;23.800;2022-12-16T22:01:13;14.52;;;5.68;;
40471;SDS011;26174;42.908;23.800;2022-12-16T22:04:24;23.42;;;11.63;;
40471;SDS011;26174;42.908;23.800;2022-12-16T22:11:39;25.27;;;10.98;;
40471;SDS011;26174;42.908;23.800;2022-12-16T22:15:21;21.73;;;11.02;;
40471;SDS011;26174;42.908;23.800;2022-12-16T22:18:53;28.33;;;13.50;;
40471;SDS011;26174;42.908;23.800;2022-12-16T22:22:23;16.58;;;9.20;;
40471;SDS011;26174;42.908;23.800;2022-12-16T22:25:59;17.85;;;8.60;;
40471;SDS011;26174;42.908;23.800;2022-12-16T22:39:43;17.38;;;8.13;;
40471;SDS011;26174;42.908;23.800;2022-12-16T22:42:58;32.78;;;14.80;;
40471;SDS011;26174;42.908;23.800;2022-12-16T22:46:26;13.63;;;6.40;;
40471;SDS011;26174;42.908;23.800;2022-12-16T22:59:31;27.00;;;12.35;;
40471;SDS011;26174;42.908;23.800;2022-12-16T23:02:58;19.25;;;9.55;;
40471;SDS011;26174;42.908;23.800;2022-12-16T23:06:24;41.92;;;17.02;;
40471;SDS011;26174;42.908;23.800;2022-12-16T23:09:51;28.58;;;11.20;;